createdAt,value
2022-08-09T00:01:14.500Z,102584.63
2022-08-09T00:04:05.838Z,102578.47
2022-08-09T00:06:30.848Z,102583.00
2022-08-09T00:08:59.165Z,102580.44
2022-08-09T00:11:56.862Z,102580.53
2022-08-09T00:14:21.825Z,102572.69
2022-08-09T00:16:55.020Z,102567.53
2022-08-09T00:19:22.137Z,102565.84
2022-08-09T00:21:56.620Z,102568.69
2022-08-09T00:24:27.762Z,102570.50
2022-08-09T00:26:57.510Z,102575.88
2022-08-09T00:30:10.290Z,102576.94
2022-08-09T00:32:27.004Z,102576.16
2022-08-09T00:34:55.686Z,102577.97
2022-08-09T00:37:22.752Z,102572.78
2022-08-09T00:40:14.088Z,102572.88
2022-08-09T00:44:15.930Z,102572.06
2022-08-09T00:45:25.839Z,102576.53
2022-08-09T00:47:52.917Z,102571.28
2022-08-09T00:50:25.078Z,102566.88
2022-08-09T00:52:55.109Z,102571.41
2022-08-09T00:56:03.227Z,102569.72
2022-08-09T00:58:10.004Z,102574.28
2022-08-09T01:00:44.278Z,102575.28
2022-08-09T01:03:36.531Z,102570.03
2022-08-09T01:06:25.552Z,102578.06
2022-08-09T01:09:36.732Z,102579.94
2022-08-09T01:12:36.696Z,102574.69
2022-08-09T01:15:16.959Z,102586.25
2022-08-09T01:17:58.937Z,102581.00
2022-08-09T01:20:51.387Z,102576.63
2022-08-09T01:24:01.721Z,102580.19
2022-08-09T01:26:44.448Z,102583.78
2022-08-09T01:29:19.176Z,102580.31
2022-08-09T01:32:32.094Z,102586.56
2022-08-09T01:34:42.116Z,102587.50
2022-08-09T01:37:14.997Z,102583.06
2022-08-09T01:39:52.482Z,102576.03
2022-08-09T01:42:21.750Z,102578.78
2022-08-09T01:44:50.599Z,102578.88
2022-08-09T01:47:19.469Z,102571.00
2022-08-09T01:49:50.982Z,102578.09
2022-08-09T01:52:24.535Z,102581.72
2022-08-09T01:54:57.863Z,102578.28
2022-08-09T01:57:40.328Z,102583.72
2022-08-09T02:00:35.052Z,102579.41
2022-08-09T02:03:05.438Z,102580.53
2022-08-09T02:05:37.911Z,102575.38
2022-08-09T02:08:39.948Z,102586.97
2022-08-09T02:11:16.965Z,102588.84
2022-08-09T02:14:02.180Z,102588.84
2022-08-09T02:16:59.710Z,102587.09
2022-08-09T02:19:25.079Z,102594.16
2022-08-09T02:22:31.646Z,102590.69
2022-08-09T02:25:20.378Z,102585.44
2022-08-09T02:28:03.928Z,102593.31
2022-08-09T02:30:51.898Z,102591.53
2022-08-09T02:33:38.397Z,102585.38
2022-08-09T02:36:26.312Z,102582.78
2022-08-09T02:39:00.706Z,102589.91
2022-08-09T02:41:35.868Z,102583.75
2022-08-09T02:44:13.814Z,102583.84
2022-08-09T02:47:01.844Z,102582.03
2022-08-09T02:49:41.419Z,102582.06
2022-08-09T02:52:16.857Z,102576.81
2022-08-09T02:54:54.551Z,102574.22
2022-08-09T02:57:25.496Z,102567.16
2022-08-09T03:00:21.144Z,102570.81
2022-08-09T03:02:59.843Z,102561.19
2022-08-09T03:05:34.671Z,102562.13
2022-08-09T03:08:03.373Z,102573.72
2022-08-09T03:10:33.673Z,102574.69
2022-08-09T03:13:02.210Z,102572.94
2022-08-09T03:16:04.256Z,102576.50
2022-08-09T03:18:30.665Z,102565.91
2022-08-09T03:21:00.224Z,102573.94
2022-08-09T03:23:28.356Z,102578.34
2022-08-09T03:26:03.775Z,102578.44
2022-08-09T03:28:34.921Z,102568.78
2022-08-09T03:31:04.401Z,102583.81
2022-08-09T03:33:54.287Z,102577.59
2022-08-09T03:36:27.587Z,102575.00
2022-08-09T03:38:56.430Z,102576.84
2022-08-09T03:41:29.745Z,102575.09
2022-08-09T03:44:12.152Z,102587.50
2022-08-09T03:46:39.534Z,102579.59
2022-08-09T03:49:09.528Z,102592.00
2022-08-09T03:51:58.311Z,102593.81
2022-08-09T03:54:34.389Z,102593.84
2022-08-09T03:57:18.340Z,102590.34
2022-08-09T03:59:55.839Z,102587.72
2022-08-09T04:02:32.502Z,102588.66
2022-08-09T04:05:06.290Z,102586.00
2022-08-09T04:07:53.071Z,102586.94
2022-08-09T04:10:28.468Z,102584.38
2022-08-09T04:13:09.519Z,102582.72
2022-08-09T04:16:18.870Z,102588.09
2022-08-09T04:18:26.631Z,102580.19
2022-08-09T04:20:55.567Z,102582.88
2022-08-09T04:23:25.012Z,102579.34
2022-08-09T04:25:54.988Z,102585.53
2022-08-09T04:28:33.525Z,102585.50
2022-08-09T04:31:09.822Z,102590.81
2022-08-09T04:33:51.981Z,102588.16
2022-08-09T04:36:28.036Z,102597.91
2022-08-09T04:38:59.313Z,102599.59
2022-08-09T04:41:32.092Z,102606.66
2022-08-09T04:44:07.222Z,102606.59
2022-08-09T04:46:59.781Z,102607.41
2022-08-09T04:49:52.325Z,102611.72
2022-08-09T04:52:27.746Z,102611.69
2022-08-09T04:54:57.614Z,102616.91
2022-08-09T04:57:53.741Z,102619.53
2022-08-09T05:00:17.161Z,102619.44
2022-08-09T05:02:48.651Z,102617.63
2022-08-09T05:05:32.086Z,102625.44
2022-08-09T05:08:08.535Z,102624.38
2022-08-09T05:10:36.807Z,102629.66
2022-08-09T05:13:04.224Z,102629.50
2022-08-09T05:15:38.835Z,102636.47
2022-08-09T05:18:42.348Z,102633.69
2022-08-09T05:21:02.293Z,102632.63
2022-08-09T05:23:58.545Z,102632.47
2022-08-09T05:26:31.649Z,102626.94
2022-08-09T05:29:04.928Z,102630.19
2022-08-09T05:31:44.187Z,102632.31
2022-08-09T05:34:16.860Z,102630.13
2022-08-09T05:36:47.012Z,102634.81
2022-08-09T05:39:28.624Z,102629.88
2022-08-09T05:42:02.842Z,102627.06
2022-08-09T05:44:34.847Z,102619.47
2022-08-09T05:47:04.877Z,102619.28
2022-08-09T05:50:30.833Z,102616.44
2022-08-09T05:52:24.758Z,102626.88
2022-08-09T05:54:52.455Z,102626.13
2022-08-09T05:57:19.620Z,102622.50
2022-08-09T05:59:52.244Z,102611.00
2022-08-09T06:02:20.290Z,102624.56
2022-08-09T06:04:49.089Z,102633.16
2022-08-09T06:07:21.294Z,102637.28
2022-08-09T06:10:01.411Z,102638.81
2022-08-09T06:12:30.761Z,102637.75
2022-08-09T06:15:01.237Z,102640.41
2022-08-09T06:17:39.245Z,102642.84
2022-08-09T06:20:09.107Z,102649.41
2022-08-09T06:22:36.722Z,102653.88
2022-08-09T06:25:04.734Z,102652.28
2022-08-09T06:27:42.082Z,102648.78
2022-08-09T06:30:14.169Z,102646.19
2022-08-09T06:33:13.637Z,102649.53
2022-08-09T06:35:35.821Z,102653.75
2022-08-09T06:38:19.577Z,102649.94
2022-08-09T06:40:54.976Z,102643.44
2022-08-09T06:43:22.337Z,102645.88
2022-08-09T06:46:07.510Z,102653.72
2022-08-09T06:48:42.830Z,102657.00
2022-08-09T06:51:11.987Z,102659.41
2022-08-09T06:53:41.904Z,102657.44
2022-08-09T06:56:09.740Z,102659.03
2022-08-09T07:00:46.775Z,102669.31
2022-08-09T07:01:27.693Z,102669.09
2022-08-09T07:04:20.033Z,102669.03
2022-08-09T07:06:47.776Z,102661.69
2022-08-09T07:09:57.142Z,102669.28
2022-08-09T07:12:17.714Z,102672.38
2022-08-09T07:14:51.278Z,102673.78
2022-08-09T07:17:22.152Z,102680.69
2022-08-09T07:19:50.990Z,102676.91
2022-08-09T07:22:34.364Z,102668.38
2022-08-09T07:25:09.480Z,102667.38
2022-08-09T07:27:42.728Z,102670.44
2022-08-09T07:30:13.385Z,102670.25
2022-08-09T07:32:41.809Z,102661.81
2022-08-09T07:35:12.626Z,102666.78
2022-08-09T07:37:45.635Z,102667.06
2022-08-09T07:40:20.771Z,102673.47
2022-08-09T07:42:59.269Z,102677.50
2022-08-09T07:45:38.280Z,102674.44
2022-08-09T07:48:28.878Z,102673.34
2022-08-09T07:51:03.025Z,102663.03
2022-08-09T07:54:05.072Z,102672.91
2022-08-09T07:56:27.793Z,102678.72
2022-08-09T07:58:59.599Z,102686.13
2022-08-09T08:01:32.946Z,102686.94
2022-08-09T08:04:00.927Z,102688.59
2022-08-09T08:06:32.257Z,102684.69
2022-08-09T08:09:05.082Z,102686.22
2022-08-09T08:12:10.167Z,102691.97
2022-08-09T08:14:24.001Z,102694.31
2022-08-09T08:17:07.317Z,102694.09
2022-08-09T08:19:35.339Z,102689.25
2022-08-09T08:22:04.132Z,102681.41
2022-08-09T08:24:34.161Z,102690.63
2022-08-09T08:27:16.959Z,102685.84
2022-08-09T08:29:49.828Z,102683.31
2022-08-09T08:32:28.709Z,102677.78
2022-08-09T08:34:59.323Z,102672.09
2022-08-09T08:37:41.676Z,102676.66
2022-08-09T08:40:15.372Z,102672.00
2022-08-09T08:42:47.353Z,102673.16
2022-08-09T08:45:37.168Z,102677.41
2022-08-09T08:48:05.980Z,102678.09
2022-08-09T08:50:33.663Z,102687.91
2022-08-09T08:53:04.075Z,102675.59
2022-08-09T08:55:32.223Z,102674.41
2022-08-09T08:57:59.965Z,102677.03
2022-08-09T09:00:34.453Z,102681.47
2022-08-09T09:03:11.563Z,102685.31
2022-08-09T09:05:58.380Z,102692.50
2022-08-09T09:08:40.296Z,102693.28
2022-08-09T09:11:17.636Z,102691.44
2022-08-09T09:13:56.418Z,102684.88
2022-08-09T09:16:31.062Z,102689.84
2022-08-09T09:19:40.167Z,102690.22
2022-08-09T09:22:28.613Z,102683.91
2022-08-09T09:26:01.024Z,102689.13
2022-08-09T09:28:06.700Z,102686.94
2022-08-09T09:30:40.793Z,102681.06
2022-08-09T09:33:15.932Z,102680.19
2022-08-09T09:36:19.923Z,102683.03
2022-08-09T09:38:57.993Z,102684.84
2022-08-09T09:41:32.931Z,102679.09
2022-08-09T09:44:34.865Z,102667.75
2022-08-09T09:47:10.724Z,102672.25
2022-08-09T09:50:13.344Z,102670.19
2022-08-09T09:52:36.412Z,102673.84
2022-08-09T09:55:24.019Z,102675.78
2022-08-09T09:58:17.246Z,102679.56
2022-08-09T10:00:55.527Z,102672.50
2022-08-09T10:03:56.416Z,102666.81
2022-08-09T10:06:42.883Z,102671.94
2022-08-09T10:09:22.234Z,102681.53
2022-08-09T10:12:26.851Z,102685.88
2022-08-09T10:14:50.027Z,102682.97
2022-08-09T10:17:40.071Z,102686.63
2022-08-09T10:20:32.489Z,102675.06
2022-08-09T10:23:21.942Z,102662.94
2022-08-09T10:26:07.755Z,102669.09
2022-08-09T10:28:40.743Z,102673.00
2022-08-09T10:34:11.468Z,102672.03
2022-08-09T10:36:49.802Z,102667.69
2022-08-09T10:39:19.637Z,102667.69
2022-08-09T10:41:48.034Z,102664.88
2022-08-09T10:44:26.403Z,102662.19
2022-08-09T10:48:17.023Z,102648.16
2022-08-09T10:50:31.439Z,102661.09
2022-08-09T10:53:10.510Z,102658.00
2022-08-09T10:55:58.455Z,102646.94
2022-08-09T10:58:34.921Z,102639.16
2022-08-09T11:03:02.560Z,102643.13
2022-08-09T11:04:30.289Z,102632.97
2022-08-09T11:07:00.261Z,102642.81
2022-08-09T11:10:00.104Z,102645.44
2022-08-09T11:12:29.901Z,102645.44
2022-08-09T11:15:02.814Z,102638.31
2022-08-09T11:17:31.035Z,102647.72
2022-08-09T11:20:19.964Z,102646.34
2022-08-09T11:22:55.396Z,102645.06
2022-08-09T11:25:36.204Z,102635.16
2022-08-09T11:28:55.890Z,102644.47
2022-08-09T11:31:49.919Z,102623.81
2022-08-09T11:34:32.784Z,102632.78
2022-08-09T11:37:03.526Z,102629.72
2022-08-09T11:40:29.867Z,102624.78
2022-08-09T11:43:01.187Z,102626.41
2022-08-09T11:45:43.577Z,102614.47
2022-08-09T11:48:25.023Z,102616.09
2022-08-09T11:52:54.049Z,102618.69
2022-08-09T11:54:13.817Z,102617.72
2022-08-09T11:56:48.248Z,102617.50
2022-08-09T11:59:30.118Z,102615.34
2022-08-09T12:02:17.808Z,102614.69
2022-08-09T12:04:57.961Z,102621.50
2022-08-09T12:07:41.477Z,102615.66
2022-08-09T12:10:14.164Z,102616.41
2022-08-09T12:13:03.805Z,102615.41
2022-08-09T12:15:49.084Z,102610.47
2022-08-09T12:18:29.611Z,102609.44
2022-08-09T12:21:02.826Z,102610.78
2022-08-09T12:23:56.271Z,102604.84
2022-08-09T12:26:26.364Z,102604.22
2022-08-09T12:29:14.548Z,102598.56
2022-08-09T12:32:01.729Z,102591.72
2022-08-09T12:34:42.418Z,102593.31
2022-08-09T12:37:23.804Z,102592.59
2022-08-09T12:40:01.218Z,102585.44
2022-08-09T12:42:28.539Z,102589.00
2022-08-09T12:44:59.438Z,102585.94
2022-08-09T12:47:32.678Z,102587.38
2022-08-09T12:50:19.674Z,102578.28
2022-08-09T12:53:17.498Z,102591.34
2022-08-09T12:56:14.242Z,102580.88
2022-08-09T12:58:28.184Z,102577.94
2022-08-09T13:00:57.588Z,102577.38
2022-08-09T13:03:53.841Z,102584.53
2022-08-09T13:06:34.000Z,102567.91
2022-08-09T13:09:07.870Z,102569.69
2022-08-09T13:11:42.269Z,102563.69
2022-08-09T13:14:40.535Z,102564.75
2022-08-09T13:17:43.757Z,102562.56
2022-08-09T13:20:14.154Z,102568.31
2022-08-09T13:23:04.858Z,102559.31
2022-08-09T13:25:43.021Z,102563.25
2022-08-09T13:28:33.735Z,102560.41
2022-08-09T13:32:14.965Z,102546.44
2022-08-09T13:34:00.090Z,102549.28
2022-08-09T13:36:40.658Z,102547.22
2022-08-09T13:41:45.823Z,102544.53
2022-08-09T13:42:12.899Z,102538.13
2022-08-09T13:44:43.136Z,102540.09
2022-08-09T13:47:31.486Z,102534.66
2022-08-09T13:50:12.619Z,102533.81
2022-08-09T13:52:47.646Z,102521.72
2022-08-09T13:55:17.631Z,102528.75
2022-08-09T13:57:55.982Z,102525.56
2022-08-09T14:00:28.395Z,102521.97
2022-08-09T14:03:03.415Z,102532.56
2022-08-09T14:06:00.477Z,102522.59
2022-08-09T14:08:31.675Z,102518.16
2022-08-09T14:11:00.517Z,102516.16
2022-08-09T14:14:22.002Z,102521.59
2022-08-09T14:16:28.142Z,102523.22
2022-08-09T14:18:57.312Z,102512.13
2022-08-09T14:21:29.323Z,102524.81
2022-08-09T14:23:57.670Z,102517.66
2022-08-09T14:26:33.783Z,102518.50
2022-08-09T14:29:07.859Z,102526.03
2022-08-09T14:31:54.849Z,102516.19
2022-08-09T14:34:31.217Z,102514.34
2022-08-09T14:37:07.433Z,102516.66
2022-08-09T14:39:45.979Z,102509.50
2022-08-09T14:42:30.204Z,102519.13
2022-08-09T14:44:59.457Z,102515.69
2022-08-09T14:47:45.507Z,102513.06
2022-08-09T14:50:16.420Z,102510.00
2022-08-09T14:52:47.936Z,102514.16
2022-08-09T14:55:20.240Z,102513.78
2022-08-09T14:57:49.257Z,102516.25
2022-08-09T15:00:17.928Z,102507.81
2022-08-09T15:02:47.754Z,102503.66
2022-08-09T15:05:19.939Z,102516.25
2022-08-09T15:07:55.905Z,102510.19
2022-08-09T15:10:31.668Z,102515.22
2022-08-09T15:13:01.432Z,102513.19
2022-08-09T15:15:34.326Z,102507.63
2022-08-09T15:18:08.270Z,102506.44
2022-08-09T15:21:58.158Z,102500.50
2022-08-09T15:24:01.703Z,102504.56
2022-08-09T15:26:18.909Z,102511.72
2022-08-09T15:28:55.521Z,102503.50
2022-08-09T15:31:28.560Z,102491.50
2022-08-09T15:34:31.608Z,102509.13
2022-08-09T15:36:55.607Z,102507.03
2022-08-09T15:39:34.607Z,102499.66
2022-08-09T15:42:13.179Z,102494.22
2022-08-09T15:44:42.098Z,102490.91
2022-08-09T15:47:14.319Z,102493.00
2022-08-09T15:50:00.552Z,102488.78
2022-08-09T15:52:38.052Z,102493.63
2022-08-09T15:55:10.393Z,102487.06
2022-08-09T15:57:44.304Z,102479.69
2022-08-09T16:00:25.296Z,102476.28
2022-08-09T16:02:56.668Z,102479.19
2022-08-09T16:05:47.412Z,102468.53
2022-08-09T16:08:30.105Z,102462.97
2022-08-09T16:11:01.410Z,102458.25
2022-08-09T16:14:05.076Z,102465.06
2022-08-09T16:16:20.182Z,102464.19
2022-08-09T16:18:53.411Z,102463.84
2022-08-09T16:21:25.489Z,102464.38
2022-08-09T16:23:58.867Z,102460.81
2022-08-09T16:26:35.216Z,102465.22
2022-08-09T16:29:11.534Z,102455.66
2022-08-09T16:32:17.965Z,102459.13
2022-08-09T16:34:56.010Z,102463.00
2022-08-09T16:37:53.959Z,102464.00
2022-08-09T16:40:12.267Z,102457.44
2022-08-09T16:42:44.991Z,102458.44
2022-08-09T16:45:17.348Z,102451.81
2022-08-09T16:48:41.364Z,102455.38
2022-08-09T16:50:38.167Z,102459.31
2022-08-09T16:53:08.796Z,102461.97
2022-08-09T16:55:57.924Z,102456.91
2022-08-09T16:58:24.851Z,102457.47
2022-08-09T17:00:53.259Z,102461.06
2022-08-09T17:03:22.852Z,102459.50
2022-08-09T17:06:07.161Z,102453.66
2022-08-09T17:09:02.771Z,102450.88
2022-08-09T17:11:39.945Z,102454.59
2022-08-09T17:14:26.192Z,102457.38
2022-08-09T17:17:12.868Z,102450.59
2022-08-09T17:20:29.004Z,102455.19
2022-08-09T17:22:49.854Z,102458.63
2022-08-09T17:25:22.196Z,102455.75
2022-08-09T17:27:53.964Z,102451.59
2022-08-09T17:30:30.736Z,102466.19
2022-08-09T17:33:05.188Z,102456.47
2022-08-09T17:35:48.932Z,102461.19
2022-08-09T17:38:30.731Z,102457.50
2022-08-09T17:41:01.286Z,102464.75
2022-08-09T17:43:33.976Z,102459.00
2022-08-09T17:46:09.078Z,102459.00
2022-08-09T17:48:52.107Z,102461.66
2022-08-09T17:51:21.629Z,102465.25
2022-08-09T17:53:53.436Z,102470.47
2022-08-09T17:56:26.621Z,102462.97
2022-08-09T17:59:03.128Z,102455.31
2022-08-09T18:01:41.231Z,102477.25
2022-08-09T18:04:23.259Z,102483.50
2022-08-09T18:06:55.200Z,102476.59
2022-08-09T18:09:40.302Z,102478.84
2022-08-09T18:12:19.683Z,102479.38
2022-08-09T18:14:53.886Z,102476.13
2022-08-09T18:17:27.665Z,102479.59
2022-08-09T18:20:54.198Z,102488.66
2022-08-09T18:23:05.063Z,102485.16
2022-08-09T18:25:51.296Z,102487.50
2022-08-09T18:30:39.731Z,102489.66
2022-08-09T18:31:11.854Z,102488.94
2022-08-09T18:33:40.217Z,102494.84
2022-08-09T18:36:14.189Z,102491.53
2022-08-09T18:38:55.130Z,102484.75
2022-08-09T18:41:27.628Z,102494.31
2022-08-09T18:43:55.320Z,102489.97
2022-08-09T18:46:47.437Z,102490.44
2022-08-09T18:49:09.447Z,102492.75
2022-08-09T18:51:38.658Z,102501.19
2022-08-09T18:54:29.480Z,102499.31
2022-08-09T18:57:05.222Z,102494.50
2022-08-09T18:59:49.340Z,102495.44
2022-08-09T19:02:20.549Z,102499.06
2022-08-09T19:05:14.840Z,102506.81
2022-08-09T19:07:38.365Z,102508.13
2022-08-09T19:10:14.021Z,102506.53
2022-08-09T19:12:50.591Z,102514.88
2022-08-09T19:15:23.374Z,102509.63
2022-08-09T19:17:54.977Z,102508.66
2022-08-09T19:20:26.316Z,102519.25
2022-08-09T19:23:01.640Z,102512.03
2022-08-09T19:26:00.967Z,102516.47
2022-08-09T19:28:16.847Z,102524.34
2022-08-09T19:30:44.923Z,102522.31
2022-08-09T19:33:19.646Z,102517.53
2022-08-09T19:35:57.287Z,102517.25
2022-08-09T19:38:27.711Z,102525.66
2022-08-09T19:40:57.727Z,102530.53
2022-08-09T19:44:00.550Z,102525.91
2022-08-09T19:46:34.846Z,102527.47
2022-08-09T19:50:08.711Z,102521.78
2022-08-09T19:51:55.467Z,102525.75
2022-08-09T19:54:27.616Z,102519.91
2022-08-09T19:56:57.031Z,102520.31
2022-08-09T19:59:57.862Z,102520.72
2022-08-09T20:02:17.325Z,102523.84
2022-08-09T20:05:02.293Z,102533.22
2022-08-09T20:07:58.626Z,102522.03
2022-08-09T20:10:34.273Z,102527.66
2022-08-09T20:13:06.876Z,102528.78
2022-08-09T20:16:37.518Z,102519.34
2022-08-09T20:18:27.565Z,102515.25
2022-08-09T20:20:57.114Z,102516.34
2022-08-09T20:23:39.245Z,102520.41
2022-08-09T20:26:13.195Z,102518.81
2022-08-09T20:28:48.860Z,102525.41
2022-08-09T20:31:18.441Z,102518.44
2022-08-09T20:33:46.580Z,102516.69
2022-08-09T20:36:20.174Z,102517.84
2022-08-09T20:41:37.732Z,102515.69
2022-08-09T20:44:09.925Z,102525.13
2022-08-09T20:46:43.302Z,102521.00
2022-08-09T20:49:14.160Z,102523.31
2022-08-09T20:51:44.144Z,102520.09
2022-08-09T20:54:16.566Z,102514.09
2022-08-09T20:56:46.901Z,102510.91
2022-08-09T20:59:17.067Z,102521.03
2022-08-09T21:01:50.425Z,102518.63
2022-08-09T21:05:53.880Z,102527.69
2022-08-09T21:07:11.498Z,102524.44
2022-08-09T21:09:56.258Z,102533.69
2022-08-09T21:12:56.442Z,102544.63
2022-08-09T21:15:15.461Z,102544.84
2022-08-09T21:18:20.823Z,102544.22
2022-08-09T21:20:33.136Z,102546.25
2022-08-09T21:23:03.345Z,102547.25
2022-08-09T21:25:55.744Z,102551.91
2022-08-09T21:28:34.854Z,102545.97
2022-08-09T21:31:16.163Z,102554.19
2022-08-09T21:33:50.308Z,102553.44
2022-08-09T21:36:27.775Z,102553.72
2022-08-09T21:38:59.295Z,102555.69
2022-08-09T21:42:04.631Z,102555.91
2022-08-09T21:44:33.971Z,102552.50
2022-08-09T21:47:09.341Z,102552.78
2022-08-09T21:49:43.175Z,102552.94
2022-08-09T21:52:17.523Z,102548.72
2022-08-09T21:55:03.246Z,102547.22
2022-08-09T21:57:39.416Z,102553.53
2022-08-09T22:00:33.618Z,102552.78
2022-08-09T22:03:06.398Z,102546.91
2022-08-09T22:05:42.392Z,102555.97
2022-08-09T22:08:14.609Z,102555.38
2022-08-09T22:11:00.749Z,102551.16
2022-08-09T22:13:36.959Z,102552.19
2022-08-09T22:16:09.029Z,102554.13
2022-08-09T22:18:53.330Z,102561.47
2022-08-09T22:21:50.308Z,102567.97
2022-08-09T22:24:21.133Z,102559.34
2022-08-09T22:26:54.045Z,102571.97
2022-08-09T22:29:28.852Z,102573.94
2022-08-09T22:32:06.651Z,102573.28
2022-08-09T22:35:02.464Z,102566.41
2022-08-09T22:37:40.581Z,102571.16
2022-08-09T22:40:10.767Z,102565.19
2022-08-09T22:42:47.520Z,102571.66
2022-08-09T22:48:10.524Z,102578.19
2022-08-09T22:48:13.621Z,102575.31
2022-08-09T22:50:53.142Z,102579.19
2022-08-09T22:53:20.452Z,102575.09
2022-08-09T22:56:29.474Z,102574.41
2022-08-09T22:58:35.076Z,102576.44
2022-08-09T23:01:05.488Z,102577.38
2022-08-09T23:04:04.183Z,102570.47
2022-08-09T23:06:32.541Z,102576.88
2022-08-09T23:09:07.522Z,102569.91
2022-08-09T23:11:35.098Z,102569.25
2022-08-09T23:14:03.536Z,102560.50
2022-08-09T23:16:31.592Z,102562.50
2022-08-09T23:18:59.092Z,102555.47
2022-08-09T23:21:32.734Z,102553.03
2022-08-09T23:24:05.201Z,102555.97
2022-08-09T23:26:36.344Z,102550.69
2022-08-09T23:29:05.889Z,102552.66
2022-08-09T23:31:33.256Z,102554.66
2022-08-09T23:34:01.019Z,102546.81
2022-08-09T23:36:30.011Z,102546.91
2022-08-09T23:38:57.067Z,102554.13
2022-08-09T23:41:28.739Z,102556.00
2022-08-09T23:44:02.135Z,102557.91
2022-08-09T23:46:30.853Z,102559.00
2022-08-09T23:48:59.888Z,102558.28
2022-08-09T23:51:27.830Z,102560.22
2022-08-09T23:54:01.898Z,102566.66
2022-08-09T23:56:52.541Z,102563.28
2022-08-09T23:59:21.074Z,102557.28
